Time;durP1;ratioP1;P1;durP2;ratioP2;P2;SDS_P1;SDS_P2;PMS_P1;PMS_P2;Temp;Humidity;BMP_temperature;BMP_pressure;BME280_temperature;BME280_humidity;BME280_pressure;Samples;Min_cycle;Max_cycle;Signal;HPM_P1;HPM_P2
2023/01/20 00:01:05;;;;;;;44.70;24.90;;;;;;;1.38;100.00;101032.68;104849;1261;61639;-59
2023/01/20 00:03:32;;;;;;;46.20;25.90;;;;;;;1.39;100.00;101034.85;105127;1259;75060;-61
2023/01/20 00:05:59;;;;;;;45.00;22.90;;;;;;;1.39;100.00;101035.23;104568;1259;69602;-60
2023/01/20 00:08:26;;;;;;;51.90;26.40;;;;;;;1.37;100.00;101034.66;105088;1259;75297;-61
2023/01/20 00:10:54;;;;;;;55.30;28.20;;;;;;;1.38;100.00;101036.67;104888;1260;61081;-59
2023/01/20 00:13:21;;;;;;;51.90;25.80;;;;;;;1.41;100.00;101037.48;104870;1264;61761;-60
2023/01/20 00:15:48;;;;;;;50.80;25.00;;;;;;;1.44;100.00;101034.23;104817;1265;76405;-60
2023/01/20 00:18:16;;;;;;;49.60;26.10;;;;;;;1.45;100.00;101031.02;104760;1259;69453;-61
2023/01/20 00:20:43;;;;;;;46.50;23.50;;;;;;;1.49;100.00;101035.05;104573;1260;75453;-59
2023/01/20 00:23:10;;;;;;;44.10;23.70;;;;;;;1.53;100.00;101034.64;104843;1265;60765;-58
2023/01/20 00:25:37;;;;;;;39.90;23.20;;;;;;;1.55;100.00;101032.95;104819;1264;61743;-59
2023/01/20 00:28:04;;;;;;;48.90;23.80;;;;;;;1.54;100.00;101030.55;104821;1265;76646;-59
2023/01/20 00:30:32;;;;;;;47.80;23.60;;;;;;;1.53;100.00;101027.41;105047;1260;68490;-61
2023/01/20 00:32:59;;;;;;;49.10;25.10;;;;;;;1.51;100.00;101027.69;104881;1259;75004;-57
2023/01/20 00:35:26;;;;;;;48.70;25.10;;;;;;;1.49;100.00;101029.08;104829;1265;62440;-60
2023/01/20 00:37:53;;;;;;;46.60;24.00;;;;;;;1.45;100.00;101023.65;104855;1260;63299;-60
2023/01/20 00:40:20;;;;;;;49.70;24.20;;;;;;;1.42;100.00;101025.77;105121;1261;76179;-62
2023/01/20 00:42:47;;;;;;;50.20;25.90;;;;;;;1.39;100.00;101023.77;104601;1265;69794;-60
2023/01/20 00:45:15;;;;;;;45.70;25.30;;;;;;;1.38;100.00;101025.21;104863;1260;75211;-60
2023/01/20 00:47:42;;;;;;;48.10;26.10;;;;;;;1.38;100.00;101025.89;104767;1265;62343;-60
2023/01/20 00:50:09;;;;;;;44.80;24.30;;;;;;;1.36;100.00;101024.98;104849;1265;62864;-63
2023/01/20 00:52:37;;;;;;;54.60;26.40;;;;;;;1.34;100.00;101024.57;104837;1265;74977;-60
2023/01/20 00:55:05;;;;;;;47.10;23.50;;;;;;;1.33;100.00;101025.88;104859;1264;69596;-59
2023/01/20 00:57:32;;;;;;;45.60;24.30;;;;;;;1.31;100.00;101026.88;104840;1259;75159;-59
2023/01/20 00:59:59;;;;;;;49.50;24.10;;;;;;;1.31;100.00;101025.66;105425;1265;62661;-62
2023/01/20 01:02:26;;;;;;;38.80;21.70;;;;;;;1.29;100.00;101021.67;105101;1259;62960;-62
2023/01/20 01:04:53;;;;;;;38.90;21.80;;;;;;;1.28;100.00;101018.66;104539;1265;76080;-59
2023/01/20 01:07:20;;;;;;;40.80;22.80;;;;;;;1.27;100.00;101021.17;104850;1259;69599;-60
2023/01/20 01:09:47;;;;;;;45.90;23.70;;;;;;;1.26;100.00;101021.59;105072;1266;73818;-59
2023/01/20 01:12:15;;;;;;;41.60;23.00;;;;;;;1.26;100.00;101022.64;105403;1265;61132;-60
2023/01/20 01:14:42;;;;;;;34.80;21.20;;;;;;;1.24;100.00;101020.81;104633;1259;62123;-60
2023/01/20 01:17:09;;;;;;;37.70;21.50;;;;;;;1.26;100.00;101027.89;104671;1261;76230;-59
2023/01/20 01:19:36;;;;;;;45.90;23.20;;;;;;;1.27;100.00;101030.44;104760;1265;69563;-59
2023/01/20 01:22:03;;;;;;;42.90;22.90;;;;;;;1.23;100.00;101030.52;104849;1260;74206;-59
2023/01/20 01:24:30;;;;;;;38.40;22.30;;;;;;;1.19;100.00;101029.02;105186;1259;61821;-62
2023/01/20 01:26:58;;;;;;;43.00;23.50;;;;;;;1.14;100.00;101030.21;104496;1260;61670;-59
2023/01/20 01:29:25;;;;;;;42.30;22.20;;;;;;;1.06;100.00;101026.13;104528;1265;76251;-59
2023/01/20 01:31:52;;;;;;;44.20;21.40;;;;;;;0.99;100.00;101030.38;104774;1262;67057;-60
2023/01/20 01:34:19;;;;;;;39.80;22.40;;;;;;;0.93;100.00;101027.31;104706;1265;74549;-59
2023/01/20 01:36:47;;;;;;;45.70;23.40;;;;;;;0.89;100.00;101027.10;104816;1265;60770;-60
2023/01/20 01:39:14;;;;;;;39.60;22.00;;;;;;;0.84;100.00;101022.85;104621;1261;62679;-59
2023/01/20 01:41:41;;;;;;;38.00;21.00;;;;;;;0.78;100.00;101020.83;105066;1260;74913;-59
2023/01/20 01:44:33;;;;;;;45.40;22.30;;;;;;;0.73;100.00;101019.10;105019;1264;298617;-59
2023/01/20 01:47:00;;;;;;;41.00;23.80;;;;;;;0.66;100.00;101018.68;104955;1263;74975;-59
2023/01/20 01:49:28;;;;;;;49.40;24.00;;;;;;;0.61;100.00;101022.24;104973;1265;62072;-59
2023/01/20 01:52:03;;;;;;;43.70;22.30;;;;;;;0.57;100.00;101023.27;105049;1265;62851;-59
2023/01/20 01:54:32;;;;;;;41.30;22.60;;;;;;;0.52;100.00;101024.91;104704;1260;75684;-59
2023/01/20 01:56:59;;;;;;;35.80;21.20;;;;;;;0.50;100.00;101019.58;105190;1264;68225;-59
2023/01/20 01:59:26;;;;;;;42.90;24.00;;;;;;;0.48;100.00;101023.26;105120;1261;74983;-60
2023/01/20 02:01:54;;;;;;;46.30;25.90;;;;;;;0.48;100.00;101017.80;104907;1264;62115;-59
2023/01/20 02:04:23;;;;;;;45.00;23.60;;;;;;;0.51;100.00;101017.33;104997;1268;61717;-61
2023/01/20 02:06:52;;;;;;;38.10;20.90;;;;;;;0.49;100.00;101016.91;104980;1264;76366;-59
2023/01/20 02:09:19;;;;;;;43.50;22.30;;;;;;;0.45;100.00;101017.66;105022;1266;69723;-60
2023/01/20 02:11:49;;;;;;;45.60;23.00;;;;;;;0.42;100.00;101021.10;104824;1267;74034;-59
2023/01/20 02:14:23;;;;;;;44.00;23.40;;;;;;;0.39;100.00;101017.02;104659;1265;62315;-61
2023/01/20 02:17:19;;;;;;;42.30;23.20;;;;;;;0.41;100.00;101023.92;105013;1259;63017;-63
2023/01/20 02:20:17;;;;;;;45.00;22.80;;;;;;;0.44;100.00;101024.24;104820;1265;76550;-61
2023/01/20 02:23:00;;;;;;;47.20;25.80;;;;;;;0.51;100.00;101018.84;104695;1265;69690;-61
2023/01/20 02:25:46;;;;;;;42.40;23.30;;;;;;;0.53;100.00;101017.36;104989;1263;73084;-59
2023/01/20 02:28:46;;;;;;;45.10;25.40;;;;;;;0.51;100.00;101023.60;104969;1266;61108;-61
2023/01/20 02:31:25;;;;;;;47.70;24.90;;;;;;;0.53;100.00;101024.70;104736;1260;62823;-60
2023/01/20 02:33:55;;;;;;;44.40;23.60;;;;;;;0.52;100.00;101031.77;104866;1265;76388;-63
2023/01/20 02:36:44;;;;;;;45.50;25.80;;;;;;;0.53;100.00;101037.34;105014;1265;68305;-59
2023/01/20 02:39:26;;;;;;;50.20;26.20;;;;;;;0.57;100.00;101031.96;104727;1260;75211;-60
2023/01/20 02:42:07;;;;;;;43.10;24.40;;;;;;;0.60;100.00;101033.80;104767;1266;64173;-60
2023/01/20 02:44:55;;;;;;;44.00;23.60;;;;;;;0.61;100.00;101032.05;104847;1260;62819;-60
2023/01/20 02:47:49;;;;;;;44.80;25.70;;;;;;;0.61;100.00;101030.33;104739;1267;76720;-59
2023/01/20 02:50:41;;;;;;;46.40;26.90;;;;;;;0.61;100.00;101032.89;104530;1260;69379;-59
2023/01/20 02:53:08;;;;;;;42.10;23.20;;;;;;;0.61;100.00;101031.02;104676;1265;74031;-59
2023/01/20 02:55:45;;;;;;;47.10;25.10;;;;;;;0.60;100.00;101033.30;105169;1264;63748;-59
2023/01/20 02:58:17;;;;;;;44.20;23.70;;;;;;;0.60;100.00;101033.30;104696;1260;62807;-59
2023/01/20 03:00:49;;;;;;;46.30;24.10;;;;;;;0.61;100.00;101037.36;104848;1265;76766;-59
2023/01/20 03:03:18;;;;;;;42.40;24.80;;;;;;;0.58;100.00;101040.23;105015;1264;68515;-60
2023/01/20 03:05:50;;;;;;;43.90;25.10;;;;;;;0.57;100.00;101046.83;104850;1264;75217;-59
2023/01/20 03:08:17;;;;;;;40.70;23.80;;;;;;;0.55;100.00;101050.58;105050;1264;63556;-63
2023/01/20 03:10:44;;;;;;;39.00;23.50;;;;;;;0.56;100.00;101058.17;104572;1265;62573;-59
2023/01/20 03:13:40;;;;;;;45.60;24.30;;;;;;;0.61;100.00;101060.06;104710;1266;76004;-59
2023/01/20 03:16:10;;;;;;;44.90;25.00;;;;;;;0.65;100.00;101064.09;104429;1265;70621;-60
2023/01/20 03:18:37;;;;;;;47.50;25.80;;;;;;;0.65;100.00;101066.84;104793;1263;74118;-59
2023/01/20 03:21:05;;;;;;;44.60;25.70;;;;;;;0.66;100.00;101067.27;104831;1264;63452;-59
2023/01/20 03:23:34;;;;;;;43.70;22.50;;;;;;;0.65;100.00;101065.80;104792;1259;61686;-59
2023/01/20 03:26:03;;;;;;;44.70;23.60;;;;;;;0.66;100.00;101063.33;104855;1265;75945;-59
2023/01/20 03:28:30;;;;;;;43.70;23.90;;;;;;;0.66;100.00;101069.36;104761;1270;68588;-58
2023/01/20 03:30:58;;;;;;;44.50;24.80;;;;;;;0.62;100.00;101070.62;104829;1265;75390;-59
2023/01/20 03:33:25;;;;;;;44.60;24.50;;;;;;;0.60;100.00;101067.31;104535;1261;63426;-59
2023/01/20 03:35:52;;;;;;;41.80;23.60;;;;;;;0.58;100.00;101065.76;104854;1260;61757;-61
2023/01/20 03:38:19;;;;;;;45.50;24.90;;;;;;;0.58;100.00;101066.64;104465;1267;76305;-59
2023/01/20 03:41:04;;;;;;;43.30;24.00;;;;;;;0.57;100.00;101070.58;104623;1264;68574;-60
2023/01/20 03:43:45;;;;;;;41.00;24.10;;;;;;;0.57;100.00;101075.73;105151;1265;75232;-62
2023/01/20 03:46:25;;;;;;;48.90;24.80;;;;;;;0.56;100.00;101074.08;104792;1266;63395;-59
2023/01/20 03:49:18;;;;;;;40.60;23.00;;;;;;;0.54;100.00;101072.49;104572;1259;61437;-59
2023/01/20 03:51:54;;;;;;;37.50;22.00;;;;;;;0.51;100.00;101074.11;104883;1264;76030;-59
2023/01/20 03:54:26;;;;;;;43.60;24.80;;;;;;;0.48;100.00;101078.68;104638;1267;68444;-59
2023/01/20 03:57:03;;;;;;;45.80;25.40;;;;;;;0.44;100.00;101077.89;104850;1266;75195;-61
2023/01/20 03:59:32;;;;;;;40.70;24.00;;;;;;;0.40;100.00;101075.26;104743;1266;63386;-59
2023/01/20 04:02:04;;;;;;;44.40;23.10;;;;;;;0.39;100.00;101071.42;104741;1262;62224;-59
2023/01/20 04:04:33;;;;;;;44.50;24.10;;;;;;;0.38;100.00;101071.46;104862;1265;76273;-61
2023/01/20 04:07:00;;;;;;;44.30;23.50;;;;;;;0.37;100.00;101071.92;104964;1264;69527;-59
2023/01/20 04:09:29;;;;;;;45.90;24.20;;;;;;;0.33;100.00;101069.40;104821;1264;75228;-59
2023/01/20 04:11:56;;;;;;;45.30;26.80;;;;;;;0.30;100.00;101070.43;104942;1264;62184;-60
2023/01/20 04:14:23;;;;;;;40.60;23.80;;;;;;;0.27;100.00;101064.48;104800;1260;62836;-60
2023/01/20 04:16:55;;;;;;;42.10;23.20;;;;;;;0.25;100.00;101064.43;104808;1265;76567;-58
2023/01/20 04:19:22;;;;;;;;;;;;;;;0.19;100.00;101066.98;104815;1265;69436;-59
2023/01/20 04:22:05;;;;;;;48.10;26.10;;;;;;;0.14;100.00;101067.48;104904;1267;74984;-59
2023/01/20 04:24:37;;;;;;;45.70;25.20;;;;;;;0.10;100.00;101067.40;104701;1265;62068;-59
2023/01/20 04:27:04;;;;;;;46.70;25.70;;;;;;;0.07;100.00;101060.92;104779;1265;62740;-59
2023/01/20 04:29:31;;;;;;;47.50;26.80;;;;;;;0.05;100.00;101055.41;104877;1261;75219;-59
2023/01/20 04:32:01;;;;;;;51.30;26.00;;;;;;;0.05;100.00;101056.15;104856;1262;68327;-59
2023/01/20 04:34:29;;;;;;;45.10;23.70;;;;;;;0.06;100.00;101060.86;104798;1261;75269;-59
2023/01/20 04:36:56;;;;;;;46.60;23.70;;;;;;;0.04;100.00;101061.13;104797;1266;63674;-59
2023/01/20 04:39:23;;;;;;;46.10;24.20;;;;;;;0.03;100.00;101059.82;104868;1264;62880;-59
2023/01/20 04:41:50;;;;;;;45.30;24.80;;;;;;;0.04;100.00;101064.20;104888;1266;74822;-60
2023/01/20 04:44:17;;;;;;;44.10;25.40;;;;;;;0.05;100.00;101065.67;104993;1264;69620;-62
2023/01/20 04:46:46;;;;;;;42.40;25.20;;;;;;;0.07;100.00;101068.45;104672;1266;76187;-59
2023/01/20 04:49:13;;;;;;;48.10;25.80;;;;;;;0.09;100.00;101064.05;104843;1266;63761;-59
2023/01/20 04:51:40;;;;;;;47.30;25.20;;;;;;;0.11;100.00;101067.00;105102;1264;62546;-62
2023/01/20 04:54:07;;;;;;;48.10;24.20;;;;;;;0.12;100.00;101067.30;105115;1265;76668;-59
2023/01/20 04:56:34;;;;;;;44.60;24.80;;;;;;;0.13;100.00;101070.29;105066;1269;69316;-61
2023/01/20 04:59:02;;;;;;;45.20;24.30;;;;;;;0.16;100.00;101069.11;105061;1264;73769;-60
2023/01/20 05:01:29;;;;;;;41.50;22.90;;;;;;;0.18;100.00;101074.08;104962;1260;63552;-61
2023/01/20 05:03:56;;;;;;;47.30;24.20;;;;;;;0.19;100.00;101076.40;104835;1264;61656;-60
2023/01/20 05:06:24;;;;;;;47.90;25.50;;;;;;;0.21;100.00;101077.98;104999;1266;75866;-59
2023/01/20 05:08:51;;;;;;;46.70;25.10;;;;;;;0.24;100.00;101081.23;104887;1264;68577;-60
2023/01/20 05:11:18;;;;;;;48.50;26.10;;;;;;;0.28;100.00;101082.20;105191;1267;75381;-63
2023/01/20 05:13:45;;;;;;;43.80;23.80;;;;;;;0.32;100.00;101083.33;104778;1261;64062;-62
2023/01/20 05:16:13;;;;;;;47.50;24.30;;;;;;;0.38;100.00;101081.73;104795;1260;62849;-60
2023/01/20 05:18:40;;;;;;;38.50;22.90;;;;;;;0.44;100.00;101078.77;104642;1265;76477;-63
2023/01/20 05:21:07;;;;;;;46.20;23.40;;;;;;;0.49;100.00;101075.39;104653;1261;68489;-61
2023/01/20 05:23:34;;;;;;;41.90;22.80;;;;;;;0.53;100.00;101083.70;104861;1264;73502;-61
2023/01/20 05:26:02;;;;;;;44.70;24.60;;;;;;;0.58;100.00;101083.38;104877;1264;62876;-61
2023/01/20 05:28:29;;;;;;;39.50;23.10;;;;;;;0.62;100.00;101085.84;105018;1260;62678;-59
2023/01/20 05:30:56;;;;;;;38.10;21.20;;;;;;;0.68;100.00;101082.69;105079;1264;76251;-61
2023/01/20 05:33:23;;;;;;;45.30;24.30;;;;;;;0.74;100.00;101080.98;104852;1264;68996;-60
2023/01/20 05:35:51;;;;;;;40.20;23.30;;;;;;;0.80;100.00;101081.13;104923;1260;75095;-61
2023/01/20 05:38:21;;;;;;;39.20;21.60;;;;;;;0.88;100.00;101083.61;104790;1264;63649;-59
2023/01/20 05:40:48;;;;;;;39.40;22.50;;;;;;;1.01;100.00;101082.81;104906;1261;61819;-62
2023/01/20 05:43:15;;;;;;;40.60;22.50;;;;;;;1.15;100.00;101074.67;104627;1260;77284;-61
2023/01/20 05:45:45;;;;;;;44.10;25.90;;;;;;;1.29;100.00;101077.31;104819;1261;68762;-59
2023/01/20 05:48:12;;;;;;;40.80;24.30;;;;;;;1.47;100.00;101081.75;104786;1261;75123;-61
2023/01/20 05:50:39;;;;;;;41.60;23.40;;;;;;;1.62;100.00;101087.73;105194;1264;62298;-61
2023/01/20 05:53:07;;;;;;;40.60;22.20;;;;;;;1.71;100.00;101083.36;104534;1261;62966;-60
2023/01/20 05:55:34;;;;;;;38.50;23.20;;;;;;;1.76;100.00;101081.19;104665;1260;75111;-61
2023/01/20 05:58:01;;;;;;;38.30;22.90;;;;;;;1.76;100.00;101076.05;104709;1265;69233;-61
2023/01/20 06:00:29;;;;;;;40.20;23.00;;;;;;;1.76;100.00;101070.37;104959;1264;75377;-61
2023/01/20 06:02:56;;;;;;;39.60;23.00;;;;;;;1.76;100.00;101071.58;105099;1260;63419;-63
2023/01/20 06:05:24;;;;;;;37.20;21.70;;;;;;;1.73;100.00;101077.94;104510;1260;61280;-60
2023/01/20 06:07:53;;;;;;;39.30;22.00;;;;;;;1.73;100.00;101081.74;104844;1261;76168;-58
2023/01/20 06:10:24;;;;;;;40.40;22.40;;;;;;;1.73;100.00;101085.17;104958;1265;69616;-60
2023/01/20 06:12:54;;;;;;;39.00;22.30;;;;;;;1.71;100.00;101082.71;105164;1260;75080;-60
2023/01/20 06:15:25;;;;;;;38.90;21.10;;;;;;;1.70;100.00;101084.98;104797;1264;63614;-58
2023/01/20 06:17:53;;;;;;;37.70;22.30;;;;;;;1.69;100.00;101085.73;104877;1264;62776;-58
2023/01/20 06:20:21;;;;;;;39.30;22.40;;;;;;;1.70;100.00;101083.80;104890;1264;76342;-58
2023/01/20 06:22:48;;;;;;;45.20;23.30;;;;;;;1.73;100.00;101085.48;104908;1264;68167;-60
2023/01/20 06:25:15;;;;;;;41.70;23.10;;;;;;;1.74;100.00;101091.56;104886;1264;74924;-62
2023/01/20 06:27:43;;;;;;;37.80;22.10;;;;;;;1.77;100.00;101089.14;104809;1267;62677;-58
2023/01/20 06:30:10;;;;;;;37.30;22.30;;;;;;;1.83;100.00;101090.98;104912;1261;62810;-59
2023/01/20 06:32:37;;;;;;;40.00;23.80;;;;;;;1.87;100.00;101093.63;104912;1261;75293;-61
2023/01/20 06:35:05;;;;;;;40.70;21.20;;;;;;;1.90;100.00;101092.55;104809;1264;69226;-60
2023/01/20 06:37:32;;;;;;;37.90;22.20;;;;;;;1.93;100.00;101094.70;104890;1260;75161;-60
2023/01/20 06:39:59;;;;;;;38.60;22.80;;;;;;;2.00;100.00;101090.14;104668;1264;63747;-60
2023/01/20 06:42:26;;;;;;;38.60;22.70;;;;;;;2.08;100.00;101089.41;104910;1260;61629;-62
2023/01/20 06:44:53;;;;;;;40.00;22.90;;;;;;;2.12;100.00;101087.02;104807;1260;75983;-60
2023/01/20 06:47:21;;;;;;;39.50;23.10;;;;;;;2.17;100.00;101090.80;104506;1265;69889;-60
2023/01/20 06:49:48;;;;;;;41.10;23.70;;;;;;;2.21;100.00;101097.07;104617;1261;74294;-60
2023/01/20 06:52:15;;;;;;;40.70;23.40;;;;;;;2.25;100.00;101095.95;104645;1266;60997;-63
2023/01/20 06:54:42;;;;;;;36.20;22.10;;;;;;;2.28;100.00;101097.41;104838;1264;61633;-60
2023/01/20 06:57:09;;;;;;;36.40;20.80;;;;;;;2.31;100.00;101093.61;105095;1265;76068;-63
2023/01/20 06:59:36;;;;;;;40.30;21.90;;;;;;;2.31;100.00;101095.48;104605;1261;70025;-63
2023/01/20 07:02:03;;;;;;;37.40;22.10;;;;;;;2.33;100.00;101096.36;104848;1264;73900;-62
2023/01/20 07:04:31;;;;;;;42.40;23.50;;;;;;;2.34;100.00;101101.41;104930;1260;61980;-63
2023/01/20 07:06:58;;;;;;;46.00;24.90;;;;;;;2.40;100.00;101098.61;104897;1266;62821;-61
2023/01/20 07:09:25;;;;;;;37.30;22.20;;;;;;;2.47;100.00;101099.36;104642;1264;76396;-63
2023/01/20 07:11:52;;;;;;;39.30;22.40;;;;;;;2.51;100.00;101096.95;104564;1260;69513;-62
2023/01/20 07:14:19;;;;;;;36.30;21.80;;;;;;;2.55;100.00;101096.02;104906;1261;74101;-60
2023/01/20 07:16:47;;;;;;;37.80;22.70;;;;;;;2.57;100.00;101102.17;104824;1266;62149;-60
2023/01/20 07:19:14;;;;;;;37.10;22.50;;;;;;;2.59;100.00;101101.50;105055;1260;62736;-63
2023/01/20 07:21:41;;;;;;;40.50;22.90;;;;;;;2.65;100.00;101106.92;104625;1267;75707;-62
2023/01/20 07:24:08;;;;;;;37.90;21.60;;;;;;;2.72;100.00;101105.23;104757;1265;68275;-65
2023/01/20 07:26:35;;;;;;;38.30;22.30;;;;;;;2.80;100.00;101107.57;104750;1260;75556;-62
2023/01/20 07:29:03;;;;;;;34.20;21.00;;;;;;;2.85;100.00;101111.50;105278;1260;63684;-65
2023/01/20 07:31:30;;;;;;;33.40;21.40;;;;;;;2.87;100.00;101116.68;104678;1266;61733;-62
2023/01/20 07:33:57;;;;;;;35.30;20.40;;;;;;;2.88;100.00;101120.01;104749;1259;76220;-60
2023/01/20 07:36:25;;;;;;;31.70;19.90;;;;;;;2.92;100.00;101126.08;105321;1262;69714;-61
2023/01/20 07:38:52;;;;;;;36.80;20.70;;;;;;;2.97;100.00;101128.46;105117;1264;74968;-61
2023/01/20 07:41:19;;;;;;;40.10;19.60;;;;;;;3.02;100.00;101132.60;105051;1260;63868;-61
2023/01/20 07:43:51;;;;;;;31.40;18.90;;;;;;;3.05;100.00;101131.67;105175;1259;62841;-60
2023/01/20 07:46:18;;;;;;;33.80;20.90;;;;;;;3.05;100.00;101130.94;104984;1260;75444;-62
2023/01/20 07:48:45;;;;;;;36.10;20.60;;;;;;;3.07;100.00;101134.79;105028;1260;68691;-60
2023/01/20 07:51:13;;;;;;;34.00;21.20;;;;;;;3.09;100.00;101127.95;105272;1260;74395;-62
2023/01/20 07:53:48;;;;;;;33.90;21.30;;;;;;;3.12;100.00;101125.98;105011;1262;64874;-60
2023/01/20 07:56:19;;;;;;;34.10;20.40;;;;;;;3.15;100.00;101122.17;105098;1260;62509;-62
2023/01/20 07:58:48;;;;;;;34.30;20.10;;;;;;;3.16;100.00;101121.07;104790;1262;76453;-63
2023/01/20 08:01:28;;;;;;;35.00;20.40;;;;;;;3.17;100.00;101126.27;104991;1261;69686;-62
2023/01/20 08:03:56;;;;;;;32.00;18.40;;;;;;;3.15;100.00;101123.66;105058;1260;74983;-63
2023/01/20 08:06:24;;;;;;;31.00;18.80;;;;;;;3.16;100.00;101124.65;105083;1267;62397;-60
2023/01/20 08:08:51;;;;;;;33.60;20.40;;;;;;;3.18;100.00;101127.41;105037;1261;62862;-62
2023/01/20 08:11:19;;;;;;;31.90;18.90;;;;;;;3.25;100.00;101126.27;104970;1265;76376;-64
2023/01/20 08:13:47;;;;;;;33.80;19.30;;;;;;;3.32;100.00;101122.27;105155;1260;69444;-62
2023/01/20 08:16:15;;;;;;;33.60;19.90;;;;;;;3.37;100.00;101115.53;106959;1265;75054;-63
2023/01/20 08:18:42;;;;;;;36.10;21.70;;;;;;;3.41;100.00;101115.08;105056;1265;60723;-60
2023/01/20 08:21:29;;;;;;;37.90;22.70;;;;;;;3.40;100.00;101112.89;105416;1260;62542;-62
2023/01/20 08:23:57;;;;;;;34.80;19.80;;;;;;;3.44;100.00;101115.02;104842;1266;74876;-61
2023/01/20 08:26:26;;;;;;;35.40;19.80;;;;;;;3.46;100.00;101110.11;104841;1261;69590;-63
2023/01/20 08:28:54;;;;;;;30.40;18.80;;;;;;;3.41;100.00;101109.20;104968;1264;74773;-63
2023/01/20 08:31:22;;;;;;;30.70;17.90;;;;;;;3.39;100.00;101105.41;104736;1264;63721;-63
2023/01/20 08:33:53;;;;;;;31.30;18.10;;;;;;;3.42;100.00;101102.30;104796;1261;61712;-60
2023/01/20 08:36:26;;;;;;;33.10;19.90;;;;;;;3.46;100.00;101097.33;104745;1262;76375;-60
2023/01/20 08:38:55;;;;;;;31.30;18.20;;;;;;;3.47;100.00;101106.70;105331;1260;68829;-61
2023/01/20 08:41:24;;;;;;;30.30;19.00;;;;;;;3.44;100.00;101102.15;104852;1267;75048;-60
2023/01/20 08:43:51;;;;;;;27.30;17.50;;;;;;;3.43;100.00;101103.04;104902;1259;63431;-60
2023/01/20 08:46:19;;;;;;;37.80;18.90;;;;;;;3.52;100.00;101104.63;104830;1260;61585;-60
2023/01/20 08:48:47;;;;;;;30.90;18.80;;;;;;;3.70;100.00;101101.20;104919;1259;75408;-62
2023/01/20 08:51:19;;;;;;;30.60;19.40;;;;;;;3.88;100.00;101102.02;105196;1259;68662;-63
2023/01/20 08:53:47;;;;;;;33.30;19.20;;;;;;;4.07;100.00;101102.91;105128;1265;73927;-62
2023/01/20 08:56:14;;;;;;;27.80;18.00;;;;;;;4.29;100.00;101106.08;105132;1263;62598;-62
2023/01/20 08:58:41;;;;;;;25.60;17.10;;;;;;;4.44;100.00;101106.70;105297;1265;61815;-62
2023/01/20 09:01:16;;;;;;;28.70;17.70;;;;;;;4.49;100.00;101104.73;104890;1260;75152;-62
2023/01/20 09:03:44;;;;;;;26.20;16.40;;;;;;;4.51;100.00;101106.14;105213;1260;69671;-60
2023/01/20 09:06:40;;;;;;;28.10;16.80;;;;;;;4.56;100.00;101108.36;104991;1261;75230;-61
2023/01/20 09:09:07;;;;;;;24.50;16.00;;;;;;;4.59;100.00;101108.46;104776;1265;62497;-61
2023/01/20 09:11:35;;;;;;;23.80;16.20;;;;;;;4.54;100.00;101104.52;104753;1260;63008;-60
2023/01/20 09:14:02;;;;;;;25.90;15.20;;;;;;;4.60;100.00;101107.55;104818;1265;76375;-61
2023/01/20 09:16:29;;;;;;;26.60;16.30;;;;;;;4.66;100.00;101101.16;104970;1260;68282;-63
2023/01/20 09:18:56;;;;;;;28.40;17.20;;;;;;;4.76;100.00;101098.33;104885;1261;74320;-60
2023/01/20 09:21:24;;;;;;;27.00;16.90;;;;;;;4.81;100.00;101097.41;104819;1265;61067;-60
2023/01/20 09:23:51;;;;;;;27.90;15.40;;;;;;;4.79;100.00;101098.38;104912;1260;63113;-61
2023/01/20 09:26:18;;;;;;;26.90;15.60;;;;;;;4.72;100.00;101090.71;104992;1265;76405;-62
2023/01/20 09:29:07;;;;;;;24.20;14.90;;;;;;;4.65;100.00;101086.09;104816;1265;69412;-61
2023/01/20 09:31:42;;;;;;;29.40;16.20;;;;;;;4.62;100.00;101088.55;104798;1265;75383;-60
2023/01/20 09:34:17;;;;;;;24.30;15.50;;;;;;;4.58;100.00;101081.65;104869;1261;62282;-61
2023/01/20 09:46:00;;;;;;;27.90;16.60;;;;;;;4.64;100.00;101074.12;104758;1260;75142;-61
2023/01/20 09:54:25;;;;;;;25.20;16.00;;;;;;;4.60;100.00;101075.64;104606;1260;75222;-61
2023/01/20 09:56:53;;;;;;;24.60;14.60;;;;;;;4.62;100.00;101077.59;104820;1260;68834;-60
2023/01/20 09:59:22;;;;;;;26.00;15.60;;;;;;;4.67;100.00;101076.36;104850;1261;75290;-61
2023/01/20 10:01:57;;;;;;;21.40;14.40;;;;;;;4.73;100.00;101077.17;104932;1261;61788;-61
2023/01/20 10:04:32;;;;;;;26.80;15.20;;;;;;;4.79;100.00;101074.61;104809;1264;62402;-61
2023/01/20 10:07:12;;;;;;;23.70;15.50;;;;;;;4.82;100.00;101066.48;104953;1260;76492;-61
2023/01/20 10:09:53;;;;;;;22.60;15.50;;;;;;;4.80;100.00;101062.35;104937;1265;68140;-61
2023/01/20 10:12:30;;;;;;;21.70;14.10;;;;;;;4.77;100.00;101056.88;104750;1260;74892;-60
2023/01/20 10:15:09;;;;;;;21.90;14.50;;;;;;;4.80;100.00;101056.00;105202;1265;60911;-60
2023/01/20 10:17:39;;;;;;;22.00;14.80;;;;;;;4.83;100.00;101056.95;105028;1260;61889;-63
2023/01/20 10:20:25;;;;;;;23.30;15.00;;;;;;;4.79;100.00;101050.17;105088;1260;75354;-61
2023/01/20 10:23:03;;;;;;;22.70;13.80;;;;;;;4.77;100.00;101046.91;105060;1265;69701;-60
2023/01/20 10:25:38;;;;;;;26.30;15.10;;;;;;;4.76;100.00;101050.82;105068;1265;75516;-61
2023/01/20 10:28:29;;;;;;;24.30;15.10;;;;;;;4.69;100.00;101049.32;104788;1268;62060;-60
2023/01/20 10:30:57;;;;;;;22.80;14.60;;;;;;;4.61;100.00;101046.63;105375;1259;62704;-62
2023/01/20 10:33:31;;;;;;;23.70;14.30;;;;;;;4.53;100.00;101042.30;104870;1265;76394;-62
2023/01/20 10:35:59;;;;;;;23.70;13.60;;;;;;;4.49;100.00;101048.37;105108;1259;70017;-60
2023/01/20 10:38:38;;;;;;;24.40;14.90;;;;;;;4.47;100.00;101048.48;105226;1260;74348;-60
2023/01/20 10:41:17;;;;;;;25.00;16.50;;;;;;;4.44;100.00;101042.73;104993;1265;62094;-61
2023/01/20 10:43:46;;;;;;;26.30;16.00;;;;;;;4.43;100.00;101032.33;104807;1265;62834;-61
2023/01/20 10:46:35;;;;;;;24.60;14.70;;;;;;;4.40;100.00;101028.75;105122;1265;76346;-61
2023/01/20 10:49:24;;;;;;;25.40;14.90;;;;;;;4.40;100.00;101033.77;105044;1261;69696;-60
2023/01/20 10:51:51;;;;;;;25.10;15.50;;;;;;;4.35;100.00;101026.05;104897;1260;74927;-60
2023/01/20 10:54:22;;;;;;;26.80;17.10;;;;;;;4.35;100.00;101025.85;105361;1262;61112;-62
2023/01/20 10:56:54;;;;;;;25.10;14.80;;;;;;;4.40;100.00;101022.08;104870;1260;61616;-60
2023/01/20 10:59:26;;;;;;;24.80;15.70;;;;;;;4.47;100.00;101028.74;105013;1267;76219;-60
2023/01/20 11:01:53;;;;;;;;;;;;;;;4.54;100.00;101026.57;105204;1260;69639;-60
2023/01/20 11:04:36;;;;;;;32.80;21.50;;;;;;;4.61;100.00;101020.28;104878;1264;75259;-60
2023/01/20 11:07:07;;;;;;;33.00;20.40;;;;;;;4.59;100.00;101019.33;104982;1261;61805;-60
2023/01/20 11:09:38;;;;;;;31.70;19.40;;;;;;;4.52;100.00;101018.48;105171;1260;62969;-61
2023/01/20 11:12:25;;;;;;;28.10;18.10;;;;;;;4.47;100.00;101023.88;105356;1265;76326;-61
2023/01/20 11:14:53;;;;;;;29.80;18.10;;;;;;;4.43;100.00;101018.77;105119;1265;69295;-60
2023/01/20 11:17:21;;;;;;;29.60;16.30;;;;;;;4.43;100.00;101023.20;105170;1259;75238;-60
2023/01/20 11:19:55;;;;;;;29.30;16.60;;;;;;;4.45;100.00;101020.46;104822;1264;61190;-63
2023/01/20 11:22:28;;;;;;;29.10;18.60;;;;;;;4.40;100.00;101018.77;105236;1262;62940;-64
2023/01/20 11:25:00;;;;;;;27.30;17.20;;;;;;;4.38;100.00;101015.47;105157;1264;75705;-65
2023/01/20 11:27:28;;;;;;;;;;;;;;;4.41;100.00;101016.86;104747;1267;69613;-66
2023/01/20 11:29:59;;;;;;;27.70;17.10;;;;;;;4.38;100.00;101009.11;104766;1259;75703;-64
2023/01/20 11:32:38;;;;;;;29.30;17.30;;;;;;;4.31;100.00;101010.22;105215;1259;63467;-62